sensor_id;sensor_type;location;lat;lon;timestamp;pressure;altitude;pressure_sealevel;temperature;humidity
36834;BME280;48003;52.084;5.224;2022-12-15T00:38:55;100758.0;;;-1.09;67.16
36834;BME280;48003;52.084;5.224;2022-12-15T00:40:31;100769.0;;;-1.08;67.69
36834;BME280;48003;52.084;5.224;2022-12-15T00:43:45;100773.0;;;-1.1;67.34
36834;BME280;48003;52.084;5.224;2022-12-15T00:46:53;100776.0;;;-1.21;67.05
36834;BME280;48003;52.084;5.224;2022-12-15T00:48:29;100772.0;;;-1.21;67.45
36834;BME280;48003;52.084;5.224;2022-12-15T00:51:10;100767.0;;;-1.21;67.97
36834;BME280;48003;52.084;5.224;2022-12-15T01:21:54;100792.0;;;-1.38;67.3
36834;BME280;48003;52.084;5.224;2022-12-15T01:23:31;100798.0;;;-1.38;67.89
36834;BME280;48003;52.084;5.224;2022-12-15T01:25:09;100798.0;;;-1.35;68.36
36834;BME280;48003;52.084;5.224;2022-12-15T01:26:46;100797.0;;;-1.33;68.38
36834;BME280;48003;52.084;5.224;2022-12-15T01:28:22;100800.0;;;-1.27;68.3
36834;BME280;48003;52.084;5.224;2022-12-15T01:31:36;100806.0;;;-1.35;67.87
36834;BME280;48003;52.084;5.224;2022-12-15T01:33:14;100805.0;;;-1.42;67.7
36834;BME280;48003;52.084;5.224;2022-12-15T01:38:05;100805.0;;;-1.53;68.27
36834;BME280;48003;52.084;5.224;2022-12-15T01:40:50;100806.0;;;-1.55;68.41
36834;BME280;48003;52.084;5.224;2022-12-15T01:42:26;100809.0;;;-1.53;68.97
36834;BME280;48003;52.084;5.224;2022-12-15T01:44:22;100811.0;;;-1.47;68.74
36834;BME280;48003;52.084;5.224;2022-12-15T01:46:03;100812.0;;;-1.49;68.75
36834;BME280;48003;52.084;5.224;2022-12-15T01:47:40;100825.0;;;-1.47;68.58
36834;BME280;48003;52.084;5.224;2022-12-15T01:49:20;100815.0;;;-1.43;68.53
36834;BME280;48003;52.084;5.224;2022-12-15T01:52:48;100813.0;;;-1.45;68.03
36834;BME280;48003;52.084;5.224;2022-12-15T01:54:28;100821.0;;;-1.5;67.77
36834;BME280;48003;52.084;5.224;2022-12-15T01:56:07;100824.0;;;-1.46;68.1
36834;BME280;48003;52.084;5.224;2022-12-15T01:57:46;100826.0;;;-1.5;68.05
36834;BME280;48003;52.084;5.224;2022-12-15T02:01:07;100826.0;;;-1.53;67.91
36834;BME280;48003;52.084;5.224;2022-12-15T02:02:44;100822.0;;;-1.56;67.84
36834;BME280;48003;52.084;5.224;2022-12-15T02:04:21;100830.0;;;-1.62;67.87
36834;BME280;48003;52.084;5.224;2022-12-15T02:07:38;100827.0;;;-1.55;68.27
36834;BME280;48003;52.084;5.224;2022-12-15T02:09:15;100827.0;;;-1.58;68.45
36834;BME280;48003;52.084;5.224;2022-12-15T02:11:04;100827.0;;;-1.63;68.08
36834;BME280;48003;52.084;5.224;2022-12-15T02:12:53;100827.0;;;-1.66;68.05
36834;BME280;48003;52.084;5.224;2022-12-15T02:14:46;100825.0;;;-1.64;68.52
36834;BME280;48003;52.084;5.224;2022-12-15T02:16:36;100821.0;;;-1.53;68.3
36834;BME280;48003;52.084;5.224;2022-12-15T02:20:33;100826.0;;;-1.57;68.44
36834;BME280;48003;52.084;5.224;2022-12-15T02:22:21;100825.0;;;-1.59;68.67
36834;BME280;48003;52.084;5.224;2022-12-15T02:24:18;100824.0;;;-1.58;68.8
36834;BME280;48003;52.084;5.224;2022-12-15T02:27:14;100826.0;;;-1.56;68.73
36834;BME280;48003;52.084;5.224;2022-12-15T02:29:16;100828.0;;;-1.6;68.47
36834;BME280;48003;52.084;5.224;2022-12-15T02:33:51;100827.0;;;-1.66;68.61
36834;BME280;48003;52.084;5.224;2022-12-15T02:35:34;100826.0;;;-1.53;68.41
36834;BME280;48003;52.084;5.224;2022-12-15T02:38:57;100828.0;;;-1.56;68.3
36834;BME280;48003;52.084;5.224;2022-12-15T02:40:35;100828.0;;;-1.63;68.44
36834;BME280;48003;52.084;5.224;2022-12-15T02:42:12;100831.0;;;-1.66;68.95
36834;BME280;48003;52.084;5.224;2022-12-15T02:43:49;100828.0;;;-1.62;69.08
36834;BME280;48003;52.084;5.224;2022-12-15T02:47:27;100830.0;;;-1.62;68.98
36834;BME280;48003;52.084;5.224;2022-12-15T02:49:13;100823.0;;;-1.68;68.94
36834;BME280;48003;52.084;5.224;2022-12-15T02:51:06;100823.0;;;-1.7;68.92
36834;BME280;48003;52.084;5.224;2022-12-15T02:52:59;100824.0;;;-1.72;68.97
36834;BME280;48003;52.084;5.224;2022-12-15T02:54:48;100828.0;;;-1.77;68.72
36834;BME280;48003;52.084;5.224;2022-12-15T02:56:37;100828.0;;;-1.84;68.53
36834;BME280;48003;52.084;5.224;2022-12-15T02:58:24;100833.0;;;-1.85;68.72
36834;BME280;48003;52.084;5.224;2022-12-15T03:01:48;100836.0;;;-1.84;68.91
36834;BME280;48003;52.084;5.224;2022-12-15T03:03:30;100832.0;;;-1.79;69.24
36834;BME280;48003;52.084;5.224;2022-12-15T03:05:08;100837.0;;;-1.78;69.24
36834;BME280;48003;52.084;5.224;2022-12-15T03:06:45;100835.0;;;-1.85;68.77
36834;BME280;48003;52.084;5.224;2022-12-15T03:10:05;100837.0;;;-1.89;68.47
36834;BME280;48003;52.084;5.224;2022-12-15T03:11:42;100833.0;;;-1.97;68.31
36834;BME280;48003;52.084;5.224;2022-12-15T03:13:19;100833.0;;;-1.99;68.58
36834;BME280;48003;52.084;5.224;2022-12-15T03:16:31;100838.0;;;-1.97;68.95
36834;BME280;48003;52.084;5.224;2022-12-15T03:18:08;100839.0;;;-1.97;68.91
36834;BME280;48003;52.084;5.224;2022-12-15T03:19:44;100843.0;;;-1.97;68.72
36834;BME280;48003;52.084;5.224;2022-12-15T03:21:21;100842.0;;;-1.99;68.83
36834;BME280;48003;52.084;5.224;2022-12-15T03:24:33;100842.0;;;-1.98;68.99
36834;BME280;48003;52.084;5.224;2022-12-15T03:26:11;100847.0;;;-1.99;69.03
36834;BME280;48003;52.084;5.224;2022-12-15T03:27:47;100851.0;;;-1.99;69.23
36834;BME280;48003;52.084;5.224;2022-12-15T03:30:59;100855.0;;;-1.99;69.44
36834;BME280;48003;52.084;5.224;2022-12-15T03:32:35;100855.0;;;-1.84;69.37
36834;BME280;48003;52.084;5.224;2022-12-15T03:34:11;100857.0;;;-1.87;68.8
36834;BME280;48003;52.084;5.224;2022-12-15T03:37:25;100857.0;;;-1.55;68.33
36834;BME280;48003;52.084;5.224;2022-12-15T03:39:01;100864.0;;;-1.44;67.98
36834;BME280;48003;52.084;5.224;2022-12-15T03:40:38;100857.0;;;-1.54;68.22
36834;BME280;48003;52.084;5.224;2022-12-15T03:42:47;100857.0;;;-1.6;68.24
36834;BME280;48003;52.084;5.224;2022-12-15T03:44:22;100862.0;;;-1.71;69.06
36834;BME280;48003;52.084;5.224;2022-12-15T03:47:38;100864.0;;;-1.58;69.23
36834;BME280;48003;52.084;5.224;2022-12-15T03:49:15;100866.0;;;-1.66;69.39
36834;BME280;48003;52.084;5.224;2022-12-15T03:50:51;100865.0;;;-1.73;69.23
36834;BME280;48003;52.084;5.224;2022-12-15T03:54:05;100860.0;;;-1.76;69.2
36834;BME280;48003;52.084;5.224;2022-12-15T03:55:42;100861.0;;;-1.62;68.92
36834;BME280;48003;52.084;5.224;2022-12-15T03:57:18;100858.0;;;-1.6;68.47
36834;BME280;48003;52.084;5.224;2022-12-15T04:00:30;100861.0;;;-1.72;68.73
36834;BME280;48003;52.084;5.224;2022-12-15T04:02:08;100863.0;;;-1.76;69.09
36834;BME280;48003;52.084;5.224;2022-12-15T04:03:46;100865.0;;;-1.79;69.41
36834;BME280;48003;52.084;5.224;2022-12-15T04:05:23;100858.0;;;-1.66;69.06
36834;BME280;48003;52.084;5.224;2022-12-15T04:08:37;100858.0;;;-1.74;68.53
36834;BME280;48003;52.084;5.224;2022-12-15T04:10:13;100860.0;;;-1.8;68.58
36834;BME280;48003;52.084;5.224;2022-12-15T04:11:50;100860.0;;;-1.86;68.97
36834;BME280;48003;52.084;5.224;2022-12-15T04:15:04;100861.0;;;-1.75;69.05
36834;BME280;48003;52.084;5.224;2022-12-15T04:16:40;100861.0;;;-1.68;68.75
36834;BME280;48003;52.084;5.224;2022-12-15T04:18:16;100867.0;;;-1.78;68.94
36834;BME280;48003;52.084;5.224;2022-12-15T04:22:03;100872.0;;;-1.8;69.92
36834;BME280;48003;52.084;5.224;2022-12-15T05:31:59;100886.0;;;-2.19;69.61
36834;BME280;48003;52.084;5.224;2022-12-15T05:33:48;100887.0;;;-2.02;69.86
36834;BME280;48003;52.084;5.224;2022-12-15T05:35:24;100889.0;;;-1.95;70.11
36834;BME280;48003;52.084;5.224;2022-12-15T05:38:38;100885.0;;;-1.97;70.22
36834;BME280;48003;52.084;5.224;2022-12-15T05:40:15;100884.0;;;-2.03;70.36
36834;BME280;48003;52.084;5.224;2022-12-15T05:41:51;100883.0;;;-2.06;70.62
36834;BME280;48003;52.084;5.224;2022-12-15T05:45:06;100883.0;;;-2.06;70.49
36834;BME280;48003;52.084;5.224;2022-12-15T05:46:43;100883.0;;;-2.11;70.33
36834;BME280;48003;52.084;5.224;2022-12-15T05:48:20;100885.0;;;-2.13;70.06
36834;BME280;48003;52.084;5.224;2022-12-15T05:49:56;100887.0;;;-2.17;69.91
36834;BME280;48003;52.084;5.224;2022-12-15T05:53:12;100896.0;;;-2.11;69.53
36834;BME280;48003;52.084;5.224;2022-12-15T05:54:48;100899.0;;;-2.0;68.87
36834;BME280;48003;52.084;5.224;2022-12-15T05:56:27;100898.0;;;-1.93;68.72
36834;BME280;48003;52.084;5.224;2022-12-15T05:59:40;100901.0;;;-1.77;68.78
36834;BME280;48003;52.084;5.224;2022-12-15T06:01:17;100908.0;;;-1.62;68.52
36834;BME280;48003;52.084;5.224;2022-12-15T06:02:54;100909.0;;;-1.53;68.22
36834;BME280;48003;52.084;5.224;2022-12-15T06:04:30;100913.0;;;-1.5;68.24
36834;BME280;48003;52.084;5.224;2022-12-15T06:07:45;100918.0;;;-1.67;68.64
36834;BME280;48003;52.084;5.224;2022-12-15T06:09:22;100916.0;;;-1.72;69.02
36834;BME280;48003;52.084;5.224;2022-12-15T06:10:58;100915.0;;;-1.87;69.64
36834;BME280;48003;52.084;5.224;2022-12-15T06:14:12;100917.0;;;-1.94;70.14
36834;BME280;48003;52.084;5.224;2022-12-15T06:15:57;100921.0;;;-1.98;70.19
36834;BME280;48003;52.084;5.224;2022-12-15T06:17:33;100921.0;;;-2.03;70.16
36834;BME280;48003;52.084;5.224;2022-12-15T06:19:10;100923.0;;;-2.04;70.34
36834;BME280;48003;52.084;5.224;2022-12-15T06:22:22;100921.0;;;-2.06;70.66
36834;BME280;48003;52.084;5.224;2022-12-15T06:24:00;100928.0;;;-2.1;70.91
36834;BME280;48003;52.084;5.224;2022-12-15T06:25:37;100930.0;;;-2.12;70.53
36834;BME280;48003;52.084;5.224;2022-12-15T06:28:50;100935.0;;;-2.14;70.53
36834;BME280;48003;52.084;5.224;2022-12-15T06:30:26;100931.0;;;-2.12;70.66
36834;BME280;48003;52.084;5.224;2022-12-15T06:32:03;100934.0;;;-2.15;70.13
36834;BME280;48003;52.084;5.224;2022-12-15T06:35:17;100931.0;;;-2.27;69.8
36834;BME280;48003;52.084;5.224;2022-12-15T06:36:53;100921.0;;;-2.09;70.12
36834;BME280;48003;52.084;5.224;2022-12-15T06:38:30;100924.0;;;-2.04;70.16
36834;BME280;48003;52.084;5.224;2022-12-15T06:40:08;100923.0;;;-2.01;70.23
36834;BME280;48003;52.084;5.224;2022-12-15T06:43:20;100923.0;;;-1.99;70.28
36834;BME280;48003;52.084;5.224;2022-12-15T06:44:56;100925.0;;;-2.04;70.49
36834;BME280;48003;52.084;5.224;2022-12-15T06:46:33;100928.0;;;-2.02;70.47
36834;BME280;48003;52.084;5.224;2022-12-15T06:49:46;100931.0;;;-2.02;70.77
36834;BME280;48003;52.084;5.224;2022-12-15T06:51:27;100933.0;;;-2.08;70.95
36834;BME280;48003;52.084;5.224;2022-12-15T06:53:03;100934.0;;;-2.12;71.19
36834;BME280;48003;52.084;5.224;2022-12-15T06:56:18;100935.0;;;-2.2;70.8
36834;BME280;48003;52.084;5.224;2022-12-15T06:57:55;100935.0;;;-2.27;70.61
36834;BME280;48003;52.084;5.224;2022-12-15T06:59:31;100933.0;;;-2.3;70.58
36834;BME280;48003;52.084;5.224;2022-12-15T07:01:08;100938.0;;;-2.33;70.52
36834;BME280;48003;52.084;5.224;2022-12-15T07:04:20;100932.0;;;-2.37;70.61
36834;BME280;48003;52.084;5.224;2022-12-15T07:06:00;100933.0;;;-2.34;70.75
36834;BME280;48003;52.084;5.224;2022-12-15T07:07:37;100935.0;;;-2.33;70.86
36834;BME280;48003;52.084;5.224;2022-12-15T07:10:52;100937.0;;;-2.3;71.02
36834;BME280;48003;52.084;5.224;2022-12-15T07:12:28;100933.0;;;-2.3;70.87
36834;BME280;48003;52.084;5.224;2022-12-15T07:14:04;100933.0;;;-2.3;70.83
36834;BME280;48003;52.084;5.224;2022-12-15T07:15:40;100930.0;;;-2.31;70.7
36834;BME280;48003;52.084;5.224;2022-12-15T07:18:54;100936.0;;;-2.35;70.47
36834;BME280;48003;52.084;5.224;2022-12-15T07:20:30;100938.0;;;-2.31;70.28
36834;BME280;48003;52.084;5.224;2022-12-15T07:22:07;100945.0;;;-2.24;70.12
36834;BME280;48003;52.084;5.224;2022-12-15T07:25:22;100952.0;;;-2.21;70.38
36834;BME280;48003;52.084;5.224;2022-12-15T07:26:59;100955.0;;;-2.08;70.03
36834;BME280;48003;52.084;5.224;2022-12-15T07:28:36;100958.0;;;-2.12;70.27
36834;BME280;48003;52.084;5.224;2022-12-15T07:31:51;100953.0;;;-2.14;71.27
36834;BME280;48003;52.084;5.224;2022-12-15T07:33:28;100955.0;;;-1.84;70.33
36834;BME280;48003;52.084;5.224;2022-12-15T07:35:05;100955.0;;;-1.76;70.41
36834;BME280;48003;52.084;5.224;2022-12-15T07:36:42;100953.0;;;-1.7;70.3
36834;BME280;48003;52.084;5.224;2022-12-15T07:39:54;100964.0;;;-1.63;70.23
36834;BME280;48003;52.084;5.224;2022-12-15T07:41:30;100964.0;;;-1.69;70.56
36834;BME280;48003;52.084;5.224;2022-12-15T07:43:06;100971.0;;;-1.69;71.2
36834;BME280;48003;52.084;5.224;2022-12-15T07:46:19;100968.0;;;-1.74;71.44
36834;BME280;48003;52.084;5.224;2022-12-15T07:47:55;100968.0;;;-1.68;71.25
36834;BME280;48003;52.084;5.224;2022-12-15T07:49:31;100963.0;;;-1.44;71.0
36834;BME280;48003;52.084;5.224;2022-12-15T07:52:45;100963.0;;;-1.35;70.42
36834;BME280;48003;52.084;5.224;2022-12-15T07:54:23;100964.0;;;-1.29;70.12
36834;BME280;48003;52.084;5.224;2022-12-15T07:56:01;100964.0;;;-1.42;70.27
36834;BME280;48003;52.084;5.224;2022-12-15T07:57:38;100965.0;;;-1.55;70.95
36834;BME280;48003;52.084;5.224;2022-12-15T08:00:52;100970.0;;;-1.61;71.53
36834;BME280;48003;52.084;5.224;2022-12-15T08:02:29;100976.0;;;-1.53;71.36
36834;BME280;48003;52.084;5.224;2022-12-15T08:04:06;100974.0;;;-1.53;71.58
36834;BME280;48003;52.084;5.224;2022-12-15T08:07:21;100977.0;;;-1.39;70.89
36834;BME280;48003;52.084;5.224;2022-12-15T08:08:57;100976.0;;;-1.3;70.62
36834;BME280;48003;52.084;5.224;2022-12-15T08:12:13;100977.0;;;-1.12;70.19
36834;BME280;48003;52.084;5.224;2022-12-15T08:15:26;100967.0;;;-1.01;69.69
36834;BME280;48003;52.084;5.224;2022-12-15T08:17:02;100973.0;;;-1.11;69.95
36834;BME280;48003;52.084;5.224;2022-12-15T08:18:38;100975.0;;;-1.21;70.19
36834;BME280;48003;52.084;5.224;2022-12-15T08:21:51;100976.0;;;-1.33;70.72
36834;BME280;48003;52.084;5.224;2022-12-15T08:23:28;100980.0;;;-1.3;70.73
36834;BME280;48003;52.084;5.224;2022-12-15T08:25:05;100980.0;;;-1.68;71.8
36834;BME280;48003;52.084;5.224;2022-12-15T08:28:19;100981.0;;;-1.47;72.24
36834;BME280;48003;52.084;5.224;2022-12-15T08:29:55;100988.0;;;-1.39;71.61
36834;BME280;48003;52.084;5.224;2022-12-15T08:31:32;100988.0;;;-0.98;70.45
36834;BME280;48003;52.084;5.224;2022-12-15T08:33:10;100988.0;;;-0.93;69.87
36834;BME280;48003;52.084;5.224;2022-12-15T08:36:23;100994.0;;;-0.74;69.56
36834;BME280;48003;52.084;5.224;2022-12-15T08:38:01;100991.0;;;-0.75;69.52
36834;BME280;48003;52.084;5.224;2022-12-15T08:39:37;100988.0;;;-0.75;69.47
36834;BME280;48003;52.084;5.224;2022-12-15T08:42:53;100995.0;;;-0.9;70.22
36834;BME280;48003;52.084;5.224;2022-12-15T08:44:29;100998.0;;;-0.81;70.12
36834;BME280;48003;52.084;5.224;2022-12-15T08:46:06;101000.0;;;-0.71;70.0
36834;BME280;48003;52.084;5.224;2022-12-15T08:47:42;101002.0;;;-0.75;70.47
36834;BME280;48003;52.084;5.224;2022-12-15T08:50:55;101002.0;;;-1.03;71.3
36834;BME280;48003;52.084;5.224;2022-12-15T08:52:32;101008.0;;;-1.35;72.64
36834;BME280;48003;52.084;5.224;2022-12-15T08:54:10;101005.0;;;-1.01;71.77
36834;BME280;48003;52.084;5.224;2022-12-15T08:57:22;101009.0;;;-1.32;72.94
36834;BME280;48003;52.084;5.224;2022-12-15T08:58:59;101005.0;;;-1.08;72.75
36834;BME280;48003;52.084;5.224;2022-12-15T09:00:36;101003.0;;;-0.63;71.37
36834;BME280;48003;52.084;5.224;2022-12-15T09:03:49;101005.0;;;-0.72;71.8
36834;BME280;48003;52.084;5.224;2022-12-15T09:05:26;101008.0;;;-0.55;71.11
36834;BME280;48003;52.084;5.224;2022-12-15T09:07:02;101013.0;;;-0.48;70.78
36834;BME280;48003;52.084;5.224;2022-12-15T09:08:39;101010.0;;;-0.27;70.42
36834;BME280;48003;52.084;5.224;2022-12-15T09:11:52;101007.0;;;-0.17;70.27
36834;BME280;48003;52.084;5.224;2022-12-15T09:13:29;101007.0;;;-0.2;70.16
36834;BME280;48003;52.084;5.224;2022-12-15T09:15:07;101005.0;;;-0.32;70.7
36834;BME280;48003;52.084;5.224;2022-12-15T09:18:19;101005.0;;;-0.38;71.14
36834;BME280;48003;52.084;5.224;2022-12-15T09:19:55;101009.0;;;-0.41;71.44
36834;BME280;48003;52.084;5.224;2022-12-15T09:21:31;101010.0;;;-0.4;71.84
36834;BME280;48003;52.084;5.224;2022-12-15T09:24:44;101018.0;;;-0.27;72.11
36834;BME280;48003;52.084;5.224;2022-12-15T09:26:22;101022.0;;;-0.43;72.67
36834;BME280;48003;52.084;5.224;2022-12-15T09:27:58;101031.0;;;-0.55;73.61
36834;BME280;48003;52.084;5.224;2022-12-15T09:29:34;101032.0;;;-0.91;75.39
36834;BME280;48003;52.084;5.224;2022-12-15T09:32:50;101027.0;;;-1.05;75.81
36834;BME280;48003;52.084;5.224;2022-12-15T09:34:26;101030.0;;;-1.15;76.47
36834;BME280;48003;52.084;5.224;2022-12-15T09:36:04;101024.0;;;-0.8;75.78
36834;BME280;48003;52.084;5.224;2022-12-15T09:39:18;101020.0;;;-0.69;75.05
36834;BME280;48003;52.084;5.224;2022-12-15T09:40:54;101027.0;;;-0.49;75.06
36834;BME280;48003;52.084;5.224;2022-12-15T09:42:30;101032.0;;;-0.28;74.52
36834;BME280;48003;52.084;5.224;2022-12-15T09:45:52;101030.0;;;-0.62;75.41
36834;BME280;48003;52.084;5.224;2022-12-15T09:47:41;101034.0;;;-0.38;75.11
36834;BME280;48003;52.084;5.224;2022-12-15T09:49:34;101035.0;;;-0.38;75.14
36834;BME280;48003;52.084;5.224;2022-12-15T09:51:22;101030.0;;;0.04;74.28
36834;BME280;48003;52.084;5.224;2022-12-15T09:53:10;101036.0;;;0.48;72.41
36834;BME280;48003;52.084;5.224;2022-12-15T09:54:47;101040.0;;;0.24;73.03
36834;BME280;48003;52.084;5.224;2022-12-15T09:56:32;101039.0;;;0.41;72.66
36834;BME280;48003;52.084;5.224;2022-12-15T10:00:13;101052.0;;;-0.11;73.98
36834;BME280;48003;52.084;5.224;2022-12-15T10:01:59;101055.0;;;0.3;73.72
36834;BME280;48003;52.084;5.224;2022-12-15T10:03:58;101055.0;;;0.58;72.66
36834;BME280;48003;52.084;5.224;2022-12-15T10:05:48;101059.0;;;0.48;73.36
36834;BME280;48003;52.084;5.224;2022-12-15T10:07:32;101059.0;;;0.85;71.72
36834;BME280;48003;52.084;5.224;2022-12-15T10:09:15;101060.0;;;0.9;71.36
36834;BME280;48003;52.084;5.224;2022-12-15T10:12:35;101060.0;;;0.75;72.11
36834;BME280;48003;52.084;5.224;2022-12-15T10:14:18;101065.0;;;0.65;72.27
36834;BME280;48003;52.084;5.224;2022-12-15T10:16:04;101064.0;;;0.11;74.47
36834;BME280;48003;52.084;5.224;2022-12-15T10:17:45;101061.0;;;0.37;73.84
36834;BME280;48003;52.084;5.224;2022-12-15T10:19:30;101058.0;;;0.18;74.89
36834;BME280;48003;52.084;5.224;2022-12-15T10:22:47;101055.0;;;0.05;75.36
36834;BME280;48003;52.084;5.224;2022-12-15T10:24:28;101048.0;;;0.03;75.84
36834;BME280;48003;52.084;5.224;2022-12-15T10:26:17;101046.0;;;0.1;76.28
36834;BME280;48003;52.084;5.224;2022-12-15T10:28:05;101042.0;;;0.21;76.19
36834;BME280;48003;52.084;5.224;2022-12-15T10:29:59;101044.0;;;0.29;75.94
36834;BME280;48003;52.084;5.224;2022-12-15T10:33:29;101037.0;;;0.92;74.12
36834;BME280;48003;52.084;5.224;2022-12-15T10:35:14;101041.0;;;0.95;73.99
36834;BME280;48003;52.084;5.224;2022-12-15T10:36:53;101047.0;;;1.07;73.41
36834;BME280;48003;52.084;5.224;2022-12-15T10:38:33;101046.0;;;0.97;73.94
36834;BME280;48003;52.084;5.224;2022-12-15T10:42:25;101053.0;;;1.32;73.69
36834;BME280;48003;52.084;5.224;2022-12-15T10:44:02;101052.0;;;1.75;71.89
36834;BME280;48003;52.084;5.224;2022-12-15T10:45:39;101055.0;;;1.8;71.94
36834;BME280;48003;52.084;5.224;2022-12-15T10:47:19;101055.0;;;1.92;71.69
36834;BME280;48003;52.084;5.224;2022-12-15T10:48:57;101055.0;;;2.08;71.2
36834;BME280;48003;52.084;5.224;2022-12-15T10:52:15;101049.0;;;1.74;72.49
36834;BME280;48003;52.084;5.224;2022-12-15T10:54:05;101045.0;;;1.96;72.38
36834;BME280;48003;52.084;5.224;2022-12-15T10:55:47;101044.0;;;1.93;72.86
36834;BME280;48003;52.084;5.224;2022-12-15T10:57:26;101047.0;;;2.05;73.33
36834;BME280;48003;52.084;5.224;2022-12-15T10:59:22;101046.0;;;1.81;73.38
36834;BME280;48003;52.084;5.224;2022-12-15T11:02:42;101048.0;;;2.27;72.7
36834;BME280;48003;52.084;5.224;2022-12-15T11:04:25;101045.0;;;1.81;73.97
36834;BME280;48003;52.084;5.224;2022-12-15T11:06:12;101044.0;;;1.88;74.34
36834;BME280;48003;52.084;5.224;2022-12-15T11:07:51;101042.0;;;2.29;73.16
36834;BME280;48003;52.084;5.224;2022-12-15T11:13:01;101038.0;;;2.31;72.86
36834;BME280;48003;52.084;5.224;2022-12-15T11:14:55;101032.0;;;2.71;72.14
36834;BME280;48003;52.084;5.224;2022-12-15T11:16:32;101026.0;;;2.83;71.94
36834;BME280;48003;52.084;5.224;2022-12-15T11:18:17;101026.0;;;2.23;73.84
36834;BME280;48003;52.084;5.224;2022-12-15T11:20:06;101025.0;;;2.07;74.37
36834;BME280;48003;52.084;5.224;2022-12-15T11:23:55;101031.0;;;2.25;74.08
36834;BME280;48003;52.084;5.224;2022-12-15T11:25:37;101027.0;;;2.89;72.27
36834;BME280;48003;52.084;5.224;2022-12-15T11:27:23;101025.0;;;3.12;71.03
36834;BME280;48003;52.084;5.224;2022-12-15T11:29:09;101021.0;;;2.93;71.27
36834;BME280;48003;52.084;5.224;2022-12-15T11:30:56;101025.0;;;2.62;72.63
36834;BME280;48003;52.084;5.224;2022-12-15T11:32:43;101024.0;;;2.33;74.19
36834;BME280;48003;52.084;5.224;2022-12-15T11:36:10;101024.0;;;2.67;74.11
36834;BME280;48003;52.084;5.224;2022-12-15T11:37:55;101026.0;;;3.09;73.0
36834;BME280;48003;52.084;5.224;2022-12-15T11:40:41;101031.0;;;3.52;71.94
36834;BME280;48003;52.084;5.224;2022-12-15T11:42:21;101026.0;;;3.22;72.22
36834;BME280;48003;52.084;5.224;2022-12-15T11:44:17;101026.0;;;3.47;71.97
36834;BME280;48003;52.084;5.224;2022-12-15T11:46:15;101018.0;;;3.74;70.83
36834;BME280;48003;52.084;5.224;2022-12-15T11:47:58;101019.0;;;3.55;71.5
36834;BME280;48003;52.084;5.224;2022-12-15T11:52:33;101014.0;;;3.27;72.25
36834;BME280;48003;52.084;5.224;2022-12-15T11:54:27;101012.0;;;3.13;72.72
36834;BME280;48003;52.084;5.224;2022-12-15T11:56:16;101016.0;;;3.17;72.86
36834;BME280;48003;52.084;5.224;2022-12-15T11:58:09;101015.0;;;3.3;72.92
36834;BME280;48003;52.084;5.224;2022-12-15T12:00:01;101018.0;;;2.98;73.69
36834;BME280;48003;52.084;5.224;2022-12-15T12:03:44;101025.0;;;3.32;73.05
36834;BME280;48003;52.084;5.224;2022-12-15T12:05:35;101026.0;;;3.14;73.17
36834;BME280;48003;52.084;5.224;2022-12-15T12:07:22;101025.0;;;3.26;73.05
36834;BME280;48003;52.084;5.224;2022-12-15T12:09:28;101024.0;;;3.54;72.06
36834;BME280;48003;52.084;5.224;2022-12-15T12:11:11;101023.0;;;4.03;70.49
36834;BME280;48003;52.084;5.224;2022-12-15T12:12:53;101026.0;;;3.77;71.02
36834;BME280;48003;52.084;5.224;2022-12-15T12:14:43;101022.0;;;4.09;70.66
36834;BME280;48003;52.084;5.224;2022-12-15T12:18:17;101021.0;;;4.01;70.83
36834;BME280;48003;52.084;5.224;2022-12-15T12:19:58;101015.0;;;3.92;70.72
36834;BME280;48003;52.084;5.224;2022-12-15T12:21:40;101014.0;;;3.49;72.05
36834;BME280;48003;52.084;5.224;2022-12-15T12:23:21;101013.0;;;3.53;72.19
36834;BME280;48003;52.084;5.224;2022-12-15T12:25:05;101016.0;;;3.88;71.36
36834;BME280;48003;52.084;5.224;2022-12-15T12:28:38;101010.0;;;3.82;71.2
36834;BME280;48003;52.084;5.224;2022-12-15T12:30:21;101005.0;;;3.86;71.67
36834;BME280;48003;52.084;5.224;2022-12-15T12:32:03;101005.0;;;4.16;71.13
36834;BME280;48003;52.084;5.224;2022-12-15T12:33:44;100999.0;;;4.07;71.02
36834;BME280;48003;52.084;5.224;2022-12-15T12:37:14;100996.0;;;3.9;71.91
36834;BME280;48003;52.084;5.224;2022-12-15T12:38:58;100991.0;;;4.12;72.13
36834;BME280;48003;52.084;5.224;2022-12-15T12:40:45;101000.0;;;3.83;72.55
36834;BME280;48003;52.084;5.224;2022-12-15T12:42:31;100995.0;;;4.13;72.0
36834;BME280;48003;52.084;5.224;2022-12-15T12:44:19;100998.0;;;3.89;72.94
36834;BME280;48003;52.084;5.224;2022-12-15T12:46:09;100997.0;;;3.97;72.88
36834;BME280;48003;52.084;5.224;2022-12-15T12:47:51;100990.0;;;4.36;71.64
36834;BME280;48003;52.084;5.224;2022-12-15T12:51:30;100986.0;;;4.83;70.11
36834;BME280;48003;52.084;5.224;2022-12-15T12:53:23;100984.0;;;4.62;70.77
36834;BME280;48003;52.084;5.224;2022-12-15T12:55:13;100980.0;;;4.45;71.41
36834;BME280;48003;52.084;5.224;2022-12-15T12:57:00;100978.0;;;4.29;71.58
36834;BME280;48003;52.084;5.224;2022-12-15T12:59:40;100974.0;;;4.24;72.16
36834;BME280;48003;52.084;5.224;2022-12-15T13:01:30;100975.0;;;4.13;73.08
36834;BME280;48003;52.084;5.224;2022-12-15T13:03:15;100974.0;;;3.98;73.66
36834;BME280;48003;52.084;5.224;2022-12-15T13:05:00;100965.0;;;4.42;72.61
36834;BME280;48003;52.084;5.224;2022-12-15T13:07:00;100967.0;;;4.28;73.41
36834;BME280;48003;52.084;5.224;2022-12-15T13:10:26;100958.0;;;4.21;73.45
36834;BME280;48003;52.084;5.224;2022-12-15T13:12:02;100956.0;;;4.71;72.17
36834;BME280;48003;52.084;5.224;2022-12-15T13:13:42;100952.0;;;4.37;72.58
36834;BME280;48003;52.084;5.224;2022-12-15T13:15:33;100953.0;;;4.59;71.83
36834;BME280;48003;52.084;5.224;2022-12-15T13:17:26;100956.0;;;4.41;72.42
36834;BME280;48003;52.084;5.224;2022-12-15T13:20:44;100953.0;;;4.61;71.8
36834;BME280;48003;52.084;5.224;2022-12-15T13:22:22;100955.0;;;5.0;70.83
36834;BME280;48003;52.084;5.224;2022-12-15T13:24:29;100959.0;;;5.05;70.3
36834;BME280;48003;52.084;5.224;2022-12-15T13:26:11;100951.0;;;4.63;71.94
36834;BME280;48003;52.084;5.224;2022-12-15T13:27:50;100953.0;;;5.36;69.89
36834;BME280;48003;52.084;5.224;2022-12-15T13:31:21;100949.0;;;5.41;70.22
36834;BME280;48003;52.084;5.224;2022-12-15T13:33:13;100951.0;;;5.3;70.13
36834;BME280;48003;52.084;5.224;2022-12-15T13:34:51;100943.0;;;5.21;70.7
36834;BME280;48003;52.084;5.224;2022-12-15T13:36:46;100935.0;;;5.67;69.75